Providence, New York
Current Conditions -  °F | °C
As of 10:15 PM on Wednesday 22 Oct 2014 (Local Time) from KNY0 Reporting Station
Overcast Overcast  
Wind Chill: 44°   Ceiling: 4000
Heat Index: 47°   Visibility: 10mi
Dew Point: 42°   Wind: 6mph
Humidity: 84%   Direction: 10°N
Pressure: 29.98"   Gusts: 10mph
Location:  43.1097°N, 74.0176°W
Report Text: KNY0 230215Z AUTO 01005G09KT 10SM SCT027 BKN040 OVC046 08/06 A2998 RMK AO2 T00830057
Loading
Personal Weather Stations






























Interactive Weather Map New forecast layout! Learn more

10-Day Weather Forecast

Advertisements
Track Severe Weather on mobile